Time;durP1;ratioP1;P1;durP2;ratioP2;P2;SDS_P1;SDS_P2;PMS_P1;PMS_P2;Temp;Humidity;BMP_temperature;BMP_pressure;BME280_temperature;BME280_humidity;BME280_pressure;Samples;Min_cycle;Max_cycle;Signal;HPM_P1;HPM_P2
2024/01/23 00:02:23;;;;;;;;;;;;;;;;;;5005086;28;19989;-71
2024/01/23 00:04:48;;;;;;;;;;;;;;;;;;5024291;28;20003;-71
2024/01/23 00:07:13;;;;;;;;;;;;;;;;;;5022818;28;19921;-69
2024/01/23 00:09:39;;;;;;;;;;;;;;;;;;5009306;28;19924;-69
2024/01/23 00:12:05;;;;;;;;;;;;;;;;;;5026701;28;19928;-71
2024/01/23 00:14:33;;;;;;;;;;;;;;;;;;5039672;28;20284;-68
2024/01/23 00:16:59;;;;;;;;;;;;;;;;;;5019665;28;19921;-71
2024/01/23 00:19:24;;;;;;;;;;;;;;;;;;5005502;28;19931;-69
2024/01/23 00:21:52;;;;;;;;;;;;;;;;;;5023913;28;20011;-69
2024/01/23 00:24:19;;;;;;;;;;;;;;;;;;5021207;28;20392;-68
2024/01/23 00:26:47;;;;;;;;;;;;;;;;;;5022454;28;20399;-71
2024/01/23 00:29:15;;;;;;;;;;;;;;;;;;5054775;28;19921;-72
2024/01/23 00:31:43;;;;;;;;;;;;;;;;;;5022332;28;21502;-71
2024/01/23 00:34:08;;;;;;;;;;;;;;;;;;5054513;28;19917;-69
2024/01/23 00:36:33;;;;;;;;;;;;;;;;;;5002036;28;19921;-70
2024/01/23 00:38:59;;;;;;;;;;;;;;;;;;5021310;28;19920;-68
2024/01/23 00:41:24;;;;;;;;;;;;;;;;;;5005351;28;19940;-67
2024/01/23 00:43:52;;;;;;;;;;;;;;;;;;5005333;28;19957;-68
2024/01/23 00:49:36;;;;;;;;;;;;;;;;;;5022984;28;19979;-67
2024/01/23 00:52:02;;;;;;;;;;;;;;;;;;5006964;28;19921;-68
2024/01/23 00:54:29;;;;;;;;;;;;;;;;;;5038521;28;19917;-69
2024/01/23 00:56:56;;;;;;;;;;;;;;;;;;5005388;28;19974;-71
2024/01/23 00:59:22;;;;;;;;;;;;;;;;;;5023246;28;19920;-71
2024/01/23 01:01:47;;;;;;;;;;;;;;;;;;5021070;28;19921;-69
2024/01/23 01:04:13;;;;;;;;;;;;;;;;;;5055450;28;19959;-69
2024/01/23 01:06:38;;;;;;;;;;;;;;;;;;5021010;28;20126;-69
2024/01/23 01:09:06;;;;;;;;;;;;;;;;;;5039819;28;19921;-73
2024/01/23 01:11:31;;;;;;;;;;;;;;;;;;5039801;28;20005;-69
2024/01/23 01:13:58;;;;;;;;;;;;;;;;;;5039452;28;19958;-73
2024/01/23 01:16:23;;;;;;;;;;;;;;;;;;5013983;28;20380;-71
2024/01/23 01:18:48;;;;;;;;;;;;;;;;;;5020484;28;20006;-68
2024/01/23 01:21:16;;;;;;;;;;;;;;;;;;5023500;28;19952;-69
2024/01/23 01:23:41;;;;;;;;;;;;;;;;;;5035092;28;20060;-70
2024/01/23 01:26:09;;;;;;;;;;;;;;;;;;5029662;28;19943;-69
2024/01/23 01:28:37;;;;;;;;;;;;;;;;;;5024253;28;19924;-70
2024/01/23 01:31:05;;;;;;;;;;;;;;;;;;5022239;28;19943;-72
2024/01/23 01:33:33;;;;;;;;;;;;;;;;;;5023737;28;20015;-68
2024/01/23 01:36:01;;;;;;;;;;;;;;;;;;5022500;28;19928;-69
2024/01/23 01:38:28;;;;;;;;;;;;;;;;;;5019823;28;19925;-68
2024/01/23 01:40:57;;;;;;;;;;;;;;;;;;5017786;28;19917;-71
2024/01/23 01:43:25;;;;;;;;;;;;;;;;;;5051370;28;19916;-68
2024/01/23 01:45:50;;;;;;;;;;;;;;;;;;5018169;28;20062;-69
2024/01/23 01:48:18;;;;;;;;;;;;;;;;;;5020537;28;20166;-69
2024/01/23 01:50:43;;;;;;;;;;;;;;;;;;5021508;28;20024;-70
2024/01/23 01:53:12;;;;;;;;;;;;;;;;;;5023229;28;19943;-68
2024/01/23 01:55:37;;;;;;;;;;;;;;;;;;5019489;28;20344;-73
2024/01/23 01:58:02;;;;;;;;;;;;;;;;;;5038344;28;19923;-72
2024/01/23 02:00:28;;;;;;;;;;;;;;;;;;5054023;28;20471;-73
2024/01/23 02:02:53;;;;;;;;;;;;;;;;;;5019577;28;21615;-70
2024/01/23 02:05:21;;;;;;;;;;;;;;;;;;5020206;28;20039;-72
2024/01/23 02:07:49;;;;;;;;;;;;;;;;;;5014122;28;19955;-71
2024/01/23 02:10:14;;;;;;;;;;;;;;;;;;5019104;28;20349;-73
2024/01/23 02:12:39;;;;;;;;;;;;;;;;;;5035910;28;19923;-71
2024/01/23 02:15:05;;;;;;;;;;;;;;;;;;5015385;28;20505;-73
2024/01/23 02:17:33;;;;;;;;;;;;;;;;;;5050450;28;19923;-73
2024/01/23 02:19:58;;;;;;;;;;;;;;;;;;5002365;28;19929;-71
2024/01/23 02:22:26;;;;;;;;;;;;;;;;;;5004742;28;20046;-69
2024/01/23 02:24:52;;;;;;;;;;;;;;;;;;5018117;28;19928;-73
2024/01/23 02:27:20;;;;;;;;;;;;;;;;;;5020939;28;20007;-70
2024/01/23 02:29:47;;;;;;;;;;;;;;;;;;5002277;28;19966;-68
2024/01/23 02:32:13;;;;;;;;;;;;;;;;;;5020637;28;19917;-70
2024/01/23 02:34:38;;;;;;;;;;;;;;;;;;5018657;28;19965;-70
2024/01/23 02:37:04;;;;;;;;;;;;;;;;;;5022027;28;20499;-77
2024/01/23 02:39:32;;;;;;;;;;;;;;;;;;5031155;28;19931;-67
2024/01/23 02:41:57;;;;;;;;;;;;;;;;;;5017998;28;19921;-70
2024/01/23 02:44:22;;;;;;;;;;;;;;;;;;5004489;28;20020;-68
2024/01/23 02:46:47;;;;;;;;;;;;;;;;;;5018702;28;20380;-69
2024/01/23 02:49:16;;;;;;;;;;;;;;;;;;5019349;28;20010;-72
2024/01/23 02:51:44;;;;;;;;;;;;;;;;;;5036636;28;20231;-71
2024/01/23 02:54:12;;;;;;;;;;;;;;;;;;5022679;28;20292;-69
2024/01/23 02:56:38;;;;;;;;;;;;;;;;;;5019957;28;19921;-68
2024/01/23 02:59:03;;;;;;;;;;;;;;;;;;5017812;28;19921;-69
2024/01/23 03:01:31;;;;;;;;;;;;;;;;;;5001463;28;19987;-65
2024/01/23 03:03:56;;;;;;;;;;;;;;;;;;5034397;28;20004;-69
2024/01/23 03:06:24;;;;;;;;;;;;;;;;;;5001978;28;19925;-69
2024/01/23 03:08:49;;;;;;;;;;;;;;;;;;5018926;28;20657;-72
2024/01/23 03:11:17;;;;;;;;;;;;;;;;;;5020175;28;19996;-72
2024/01/23 03:13:46;;;;;;;;;;;;;;;;;;5012586;28;19921;-71
2024/01/23 03:16:11;;;;;;;;;;;;;;;;;;5022101;28;20004;-70
2024/01/23 03:21:53;;;;;;;;;;;;;;;;;;5023253;28;19927;-73
2024/01/23 03:27:35;;;;;;;;;;;;;;;;;;5019756;28;19990;-69
2024/01/23 03:30:00;;;;;;;;;;;;;;;;;;5019261;28;20014;-73
2024/01/23 03:32:26;;;;;;;;;;;;;;;;;;5019106;28;20241;-73
2024/01/23 03:34:51;;;;;;;;;;;;;;;;;;4996649;28;19932;-73
2024/01/23 03:37:16;;;;;;;;;;;;;;;;;;5020349;28;19923;-72
2024/01/23 03:39:42;;;;;;;;;;;;;;;;;;5002084;28;19927;-71
2024/01/23 03:45:23;;;;;;;;;;;;;;;;;;5020574;28;19996;-71
2024/01/23 03:47:51;;;;;;;;;;;;;;;;;;5017302;28;19959;-73
2024/01/23 03:50:19;;;;;;;;;;;;;;;;;;5020570;28;19921;-68
2024/01/23 03:52:44;;;;;;;;;;;;;;;;;;5018811;28;19917;-71
2024/01/23 03:55:09;;;;;;;;;;;;;;;;;;5004662;28;20034;-68
2024/01/23 03:57:35;;;;;;;;;;;;;;;;;;5016321;28;19989;-71
2024/01/23 04:00:00;;;;;;;;;;;;;;;;;;5021068;28;19929;-69
2024/01/23 04:02:26;;;;;;;;;;;;;;;;;;5017379;28;19956;-70
2024/01/23 04:04:51;;;;;;;;;;;;;;;;;;5031930;28;19917;-72
2024/01/23 04:07:16;;;;;;;;;;;;;;;;;;5018450;28;20379;-69
2024/01/23 04:09:42;;;;;;;;;;;;;;;;;;5020220;28;19920;-69
2024/01/23 04:12:10;;;;;;;;;;;;;;;;;;5017545;28;20028;-71
2024/01/23 04:14:35;;;;;;;;;;;;;;;;;;5001062;28;19981;-69
2024/01/23 04:17:03;;;;;;;;;;;;;;;;;;5001786;28;20432;-70
2024/01/23 04:19:28;;;;;;;;;;;;;;;;;;5017304;28;20519;-68
2024/01/23 04:21:53;;;;;;;;;;;;;;;;;;5020997;28;19921;-69
2024/01/23 04:24:19;;;;;;;;;;;;;;;;;;5020779;28;20014;-70
2024/01/23 04:26:44;;;;;;;;;;;;;;;;;;5019036;28;20003;-68
2024/01/23 04:29:11;;;;;;;;;;;;;;;;;;5021935;28;19921;-70
2024/01/23 04:31:37;;;;;;;;;;;;;;;;;;5003221;28;20643;-71
2024/01/23 04:34:02;;;;;;;;;;;;;;;;;;5024203;28;19917;-74
2024/01/23 04:36:30;;;;;;;;;;;;;;;;;;5022159;28;20034;-72
2024/01/23 04:38:55;;;;;;;;;;;;;;;;;;5024751;28;19921;-73
2024/01/23 04:41:22;;;;;;;;;;;;;;;;;;5040780;28;19916;-71
2024/01/23 04:43:47;;;;;;;;;;;;;;;;;;5021846;28;19920;-71
2024/01/23 04:46:13;;;;;;;;;;;;;;;;;;5022221;28;19921;-69
2024/01/23 04:48:38;;;;;;;;;;;;;;;;;;5019593;28;20514;-70
2024/01/23 04:51:06;;;;;;;;;;;;;;;;;;5020833;28;19921;-70
2024/01/23 04:53:34;;;;;;;;;;;;;;;;;;5020675;28;20027;-72
2024/01/23 04:56:05;;;;;;;;;;;;;;;;;;5033803;28;19921;-70
2024/01/23 04:58:32;;;;;;;;;;;;;;;;;;5054794;28;20442;-68
2024/01/23 05:00:58;;;;;;;;;;;;;;;;;;5036892;28;19917;-69
2024/01/23 05:03:23;;;;;;;;;;;;;;;;;;5021515;28;20336;-70
2024/01/23 05:05:51;;;;;;;;;;;;;;;;;;5021554;28;20414;-73
2024/01/23 05:08:19;;;;;;;;;;;;;;;;;;5036098;28;19921;-69
2024/01/23 05:10:44;;;;;;;;;;;;;;;;;;5023281;28;19932;-72
2024/01/23 05:13:13;;;;;;;;;;;;;;;;;;5022515;28;19917;-70
2024/01/23 05:15:43;;;;;;;;;;;;;;;;;;5022485;28;20411;-69
2024/01/23 05:18:11;;;;;;;;;;;;;;;;;;5037023;28;19928;-75
2024/01/23 05:20:36;;;;;;;;;;;;;;;;;;5009961;28;20511;-70
2024/01/23 05:23:02;;;;;;;;;;;;;;;;;;5037075;28;19921;-69
2024/01/23 05:25:27;;;;;;;;;;;;;;;;;;5024321;28;20430;-70
2024/01/23 05:27:52;;;;;;;;;;;;;;;;;;5007230;28;20401;-73
2024/01/23 05:30:17;;;;;;;;;;;;;;;;;;5022097;28;19921;-73
2024/01/23 05:32:46;;;;;;;;;;;;;;;;;;5035331;28;19917;-69
2024/01/23 05:35:11;;;;;;;;;;;;;;;;;;5039658;28;19963;-72
2024/01/23 05:37:39;;;;;;;;;;;;;;;;;;5024364;28;19917;-71
2024/01/23 05:40:04;;;;;;;;;;;;;;;;;;5039274;28;19925;-72
2024/01/23 05:42:30;;;;;;;;;;;;;;;;;;5020506;28;19964;-70
2024/01/23 05:44:56;;;;;;;;;;;;;;;;;;5023146;28;20362;-73
2024/01/23 05:47:24;;;;;;;;;;;;;;;;;;5020338;28;19921;-74
2024/01/23 05:49:49;;;;;;;;;;;;;;;;;;5004976;28;20351;-71
2024/01/23 05:52:15;;;;;;;;;;;;;;;;;;5025536;28;19921;-74
2024/01/23 05:54:44;;;;;;;;;;;;;;;;;;5020500;28;19982;-69
2024/01/23 05:57:10;;;;;;;;;;;;;;;;;;5039679;28;19943;-72
2024/01/23 05:59:35;;;;;;;;;;;;;;;;;;5053112;28;20337;-73
2024/01/23 06:02:06;;;;;;;;;;;;;;;;;;5019656;28;20027;-69
2024/01/23 06:04:35;;;;;;;;;;;;;;;;;;5021435;28;19928;-69
2024/01/23 06:07:00;;;;;;;;;;;;;;;;;;5002917;28;19921;-70
2024/01/23 06:09:26;;;;;;;;;;;;;;;;;;5023490;28;19920;-74
2024/01/23 06:11:52;;;;;;;;;;;;;;;;;;5038500;28;19952;-71
2024/01/23 06:14:20;;;;;;;;;;;;;;;;;;5000602;28;19982;-68
2024/01/23 06:16:46;;;;;;;;;;;;;;;;;;5024219;28;19921;-67
2024/01/23 06:19:15;;;;;;;;;;;;;;;;;;5018879;28;20009;-73
2024/01/23 06:21:40;;;;;;;;;;;;;;;;;;5006205;28;19917;-68
2024/01/23 06:27:21;;;;;;;;;;;;;;;;;;5024115;28;19940;-70
2024/01/23 06:29:47;;;;;;;;;;;;;;;;;;5037291;28;20372;-70
2024/01/23 06:32:12;;;;;;;;;;;;;;;;;;5005570;28;20016;-71
2024/01/23 06:34:37;;;;;;;;;;;;;;;;;;5023207;28;19936;-70
2024/01/23 06:37:03;;;;;;;;;;;;;;;;;;5022609;28;19920;-71
2024/01/23 06:39:28;;;;;;;;;;;;;;;;;;5023387;28;20404;-70
2024/01/23 06:41:53;;;;;;;;;;;;;;;;;;5006170;28;19916;-70
2024/01/23 06:44:19;;;;;;;;;;;;;;;;;;5001057;28;20360;-68
2024/01/23 06:46:44;;;;;;;;;;;;;;;;;;5021354;28;19924;-69
2024/01/23 06:49:10;;;;;;;;;;;;;;;;;;4999696;28;19933;-70
2024/01/23 06:51:35;;;;;;;;;;;;;;;;;;5020935;28;20212;-70
2024/01/23 06:54:02;;;;;;;;;;;;;;;;;;5023020;28;20738;-68
2024/01/23 06:56:27;;;;;;;;;;;;;;;;;;5022791;28;19928;-69
2024/01/23 07:02:10;;;;;;;;;;;;;;;;;;5023457;28;19928;-70
2024/01/23 07:04:36;;;;;;;;;;;;;;;;;;5022700;28;20021;-71
2024/01/23 07:07:01;;;;;;;;;;;;;;;;;;5020116;28;20361;-71
2024/01/23 07:09:27;;;;;;;;;;;;;;;;;;5013203;28;19923;-71
2024/01/23 07:11:53;;;;;;;;;;;;;;;;;;5021040;28;20000;-74
2024/01/23 07:14:19;;;;;;;;;;;;;;;;;;5038008;28;20279;-69
2024/01/23 07:16:50;;;;;;;;;;;;;;;;;;5020551;28;19926;-68
2024/01/23 07:19:18;;;;;;;;;;;;;;;;;;5006945;28;20084;-70
2024/01/23 07:21:45;;;;;;;;;;;;;;;;;;5020641;28;20262;-69
2024/01/23 07:24:11;;;;;;;;;;;;;;;;;;5023429;28;20443;-68
2024/01/23 07:26:36;;;;;;;;;;;;;;;;;;5014656;28;19970;-68
2024/01/23 07:29:04;;;;;;;;;;;;;;;;;;5021460;28;20298;-69
2024/01/23 07:31:31;;;;;;;;;;;;;;;;;;5021214;28;19988;-68
2024/01/23 07:33:56;;;;;;;;;;;;;;;;;;5019861;28;19947;-67
2024/01/23 07:36:21;;;;;;;;;;;;;;;;;;5023492;28;19924;-71
2024/01/23 07:42:03;;;;;;;;;;;;;;;;;;5023911;28;19967;-68
2024/01/23 07:44:29;;;;;;;;;;;;;;;;;;5019652;28;20015;-69
2024/01/23 07:46:54;;;;;;;;;;;;;;;;;;5020597;28;20368;-69
2024/01/23 07:49:19;;;;;;;;;;;;;;;;;;5031975;28;20008;-69
2024/01/23 07:55:03;;;;;;;;;;;;;;;;;;5021821;28;20086;-66
2024/01/23 07:57:31;;;;;;;;;;;;;;;;;;5022799;28;19928;-69
2024/01/23 07:59:59;;;;;;;;;;;;;;;;;;5014089;28;20473;-68
2024/01/23 08:02:26;;;;;;;;;;;;;;;;;;5002172;28;20065;-68
2024/01/23 08:04:51;;;;;;;;;;;;;;;;;;5029626;23;19988;-87
2024/01/23 08:07:20;;;;;;;;;;;;;;;;;;5022033;28;19959;-87
2024/01/23 08:09:45;;;;;;;;;;;;;;;;;;5020600;28;20017;-86
2024/01/23 08:12:10;;;;;;;;;;;;;;;;;;5023847;28;19959;-87
2024/01/23 08:14:36;;;;;;;;;;;;;;;;;;5024020;28;20380;-86
2024/01/23 08:17:04;;;;;;;;;;;;;;;;;;5055564;28;19990;-87
2024/01/23 08:19:29;;;;;;;;;;;;;;;;;;5022154;28;20010;-88
2024/01/23 08:21:54;;;;;;;;;;;;;;;;;;5051546;28;19913;-87
2024/01/23 08:24:20;;;;;;;;;;;;;;;;;;5036396;28;19931;-87
2024/01/23 08:26:47;;;;;;;;;;;;;;;;;;5018778;28;19949;-87
2024/01/23 08:29:30;;;;;;;;;;;;;;;;;;5019733;28;20143;-85
2024/01/23 08:31:56;;;;;;;;;;;;;;;;;;5051348;28;19921;-85
2024/01/23 08:34:24;;;;;;;;;;;;;;;;;;5021824;28;19921;-86
2024/01/23 08:36:51;;;;;;;;;;;;;;;;;;5024139;28;19917;-84
2024/01/23 08:39:19;;;;;;;;;;;;;;;;;;5059643;28;19989;-86
2024/01/23 08:41:52;;;;;;;;;;;;;;;;;;5024312;28;19936;-86
2024/01/23 08:44:18;;;;;;;;;;;;;;;;;;5054448;28;20018;-88
2024/01/23 08:46:45;;;;;;;;;;;;;;;;;;5020823;28;20072;-84
2024/01/23 08:49:12;;;;;;;;;;;;;;;;;;5022817;28;19921;-85
2024/01/23 08:51:44;;;;;;;;;;;;;;;;;;5035241;28;19940;-86
2024/01/23 08:54:10;;;;;;;;;;;;;;;;;;5021191;28;19948;-86
2024/01/23 08:56:35;;;;;;;;;;;;;;;;;;5019542;28;19933;-85
2024/01/23 08:59:03;;;;;;;;;;;;;;;;;;5036097;28;19917;-86
2024/01/23 09:01:29;;;;;;;;;;;;;;;;;;5039133;28;19913;-86
2024/01/23 09:03:54;;;;;;;;;;;;;;;;;;5019184;28;19929;-87
2024/01/23 09:06:22;;;;;;;;;;;;;;;;;;5035875;28;20387;-83
2024/01/23 09:08:48;;;;;;;;;;;;;;;;;;5054897;28;19923;-84
2024/01/23 09:11:16;;;;;;;;;;;;;;;;;;5019388;28;19996;-86
2024/01/23 09:13:45;;;;;;;;;;;;;;;;;;5021667;28;19952;-87
2024/01/23 09:16:19;;;;;;;;;;;;;;;;;;5019408;28;19960;-85
2024/01/23 09:18:48;;;;;;;;;;;;;;;;;;5022106;28;19971;-84
2024/01/23 09:21:18;;;;;;;;;;;;;;;;;;5038490;28;19917;-85
2024/01/23 09:23:43;;;;;;;;;;;;;;;;;;5019771;28;19924;-86
2024/01/23 09:26:11;;;;;;;;;;;;;;;;;;5023096;28;19920;-84
2024/01/23 09:28:37;;;;;;;;;;;;;;;;;;5043891;28;20262;-86
2024/01/23 09:31:04;;;;;;;;;;;;;;;;;;5039601;28;20005;-84
2024/01/23 09:33:30;;;;;;;;;;;;;;;;;;5040312;28;19952;-85
2024/01/23 09:35:55;;;;;;;;;;;;;;;;;;5043667;28;20298;-87
2024/01/23 09:38:21;;;;;;;;;;;;;;;;;;5043929;28;19927;-86
2024/01/23 09:40:46;;;;;;;;;;;;;;;;;;5026065;28;19917;-84
2024/01/23 09:43:14;;;;;;;;;;;;;;;;;;5029795;28;20257;-84
2024/01/23 09:45:40;;;;;;;;;;;;;;;;;;5028427;28;20433;-84
2024/01/23 09:48:05;;;;;;;;;;;;;;;;;;5035982;28;19921;-88
2024/01/23 09:50:33;;;;;;;;;;;;;;;;;;5027873;28;20338;-86
2024/01/23 09:52:58;;;;;;;;;;;;;;;;;;5026688;28;19964;-87
2024/01/23 09:55:24;;;;;;;;;;;;;;;;;;5038315;28;19913;-88
2024/01/23 09:57:49;;;;;;;;;;;;;;;;;;5024706;28;20357;-86
2024/01/23 10:00:14;;;;;;;;;;;;;;;;;;5038746;28;19917;-86
2024/01/23 10:02:40;;;;;;;;;;;;;;;;;;5039775;28;19913;-86
2024/01/23 10:05:09;;;;;;;;;;;;;;;;;;5019754;28;20036;-86
2024/01/23 10:07:34;;;;;;;;;;;;;;;;;;5018380;28;19917;-86
2024/01/23 10:10:21;;;;;;;;;;;;;;;;;;5022747;28;19913;-88
2024/01/23 10:12:48;;;;;;;;;;;;;;;;;;5073145;28;19913;-85
2024/01/23 10:15:16;;;;;;;;;;;;;;;;;;5025819;28;19970;-88
2024/01/23 10:17:42;;;;;;;;;;;;;;;;;;5032205;28;19914;-85
2024/01/23 10:20:08;;;;;;;;;;;;;;;;;;5043379;28;19979;-87
2024/01/23 10:22:33;;;;;;;;;;;;;;;;;;5029872;28;19939;-87
2024/01/23 10:25:00;;;;;;;;;;;;;;;;;;5048489;28;19959;-87
2024/01/23 10:27:26;;;;;;;;;;;;;;;;;;5033854;28;19949;-87
2024/01/23 10:29:51;;;;;;;;;;;;;;;;;;5045997;28;19917;-87
2024/01/23 10:32:20;;;;;;;;;;;;;;;;;;5022420;28;19936;-85
2024/01/23 10:34:45;;;;;;;;;;;;;;;;;;5028735;28;19913;-85
2024/01/23 10:37:11;;;;;;;;;;;;;;;;;;5023577;28;19913;-86
2024/01/23 10:39:36;;;;;;;;;;;;;;;;;;5020483;28;19927;-88
2024/01/23 10:42:18;;;;;;;;;;;;;;;;;;5042153;28;19928;-89
2024/01/23 10:44:43;;;;;;;;;;;;;;;;;;5024556;28;19981;-87
2024/01/23 10:47:13;;;;;;;;;;;;;;;;;;5022438;28;20947;-86
2024/01/23 10:49:38;;;;;;;;;;;;;;;;;;5018713;28;19924;-87
2024/01/23 10:52:04;;;;;;;;;;;;;;;;;;5027434;28;20335;-87
2024/01/23 10:54:30;;;;;;;;;;;;;;;;;;5024880;28;19913;-88
2024/01/23 10:56:56;;;;;;;;;;;;;;;;;;5027312;28;19932;-87
2024/01/23 10:59:21;;;;;;;;;;;;;;;;;;5022968;28;20533;-85
2024/01/23 11:01:47;;;;;;;;;;;;;;;;;;5027334;28;19913;-88
2024/01/23 11:04:15;;;;;;;;;;;;;;;;;;5036898;28;20397;-88
2024/01/23 11:06:41;;;;;;;;;;;;;;;;;;5028171;28;19952;-87
2024/01/23 11:09:09;;;;;;;;;;;;;;;;;;5050192;28;19913;-86
2024/01/23 11:11:34;;;;;;;;;;;;;;;;;;5020951;28;20357;-86
2024/01/23 11:14:12;;;;;;;;;;;;;;;;;;5024554;28;19913;-87
2024/01/23 11:16:37;;;;;;;;;;;;;;;;;;5019233;28;19929;-87
2024/01/23 11:19:05;;;;;;;;;;;;;;;;;;5018947;28;19921;-84
2024/01/23 11:21:30;;;;;;;;;;;;;;;;;;5035381;28;19921;-85
2024/01/23 11:23:56;;;;;;;;;;;;;;;;;;5014060;28;19921;-86
2024/01/23 11:26:27;;;;;;;;;;;;;;;;;;5027061;28;19917;-89
2024/01/23 11:29:05;;;;;;;;;;;;;;;;;;5014048;28;19916;-87
2024/01/23 11:31:30;;;;;;;;;;;;;;;;;;5017200;28;19955;-89
2024/01/23 11:33:56;;;;;;;;;;;;;;;;;;5022705;28;19952;-87
2024/01/23 11:36:23;;;;;;;;;;;;;;;;;;5019180;28;19991;-87
2024/01/23 11:38:49;;;;;;;;;;;;;;;;;;5021695;28;19925;-87
2024/01/23 11:41:14;;;;;;;;;;;;;;;;;;5023325;28;19971;-86
2024/01/23 11:43:39;;;;;;;;;;;;;;;;;;5019115;28;19913;-86
2024/01/23 11:46:05;;;;;;;;;;;;;;;;;;5021455;28;19932;-87
2024/01/23 11:48:30;;;;;;;;;;;;;;;;;;5039745;28;19921;-87
2024/01/23 11:50:55;;;;;;;;;;;;;;;;;;5023447;28;19921;-87
2024/01/23 11:53:21;;;;;;;;;;;;;;;;;;5031601;28;19924;-85
2024/01/23 11:55:47;;;;;;;;;;;;;;;;;;5035112;28;19937;-85
2024/01/23 11:58:14;;;;;;;;;;;;;;;;;;5022498;28;19932;-86
2024/01/23 12:00:40;;;;;;;;;;;;;;;;;;5038132;28;19933;-88
2024/01/23 12:03:09;;;;;;;;;;;;;;;;;;5021221;28;19913;-87
2024/01/23 12:05:35;;;;;;;;;;;;;;;;;;5033274;28;19925;-85
2024/01/23 12:08:02;;;;;;;;;;;;;;;;;;5018645;28;19931;-86
2024/01/23 12:10:27;;;;;;;;;;;;;;;;;;5019188;28;20023;-88
2024/01/23 12:12:53;;;;;;;;;;;;;;;;;;5036557;28;20008;-86
2024/01/23 12:15:18;;;;;;;;;;;;;;;;;;5021528;28;20306;-89
2024/01/23 12:17:44;;;;;;;;;;;;;;;;;;5037178;28;19966;-85
2024/01/23 12:20:09;;;;;;;;;;;;;;;;;;5021018;28;20003;-89
2024/01/23 12:22:36;;;;;;;;;;;;;;;;;;5036021;28;19913;-87
2024/01/23 12:25:02;;;;;;;;;;;;;;;;;;5020536;28;19928;-84
2024/01/23 12:27:27;;;;;;;;;;;;;;;;;;5024876;28;19924;-88
2024/01/23 12:29:53;;;;;;;;;;;;;;;;;;5018136;28;19963;-87
2024/01/23 12:32:18;;;;;;;;;;;;;;;;;;5023644;28;19960;-86
2024/01/23 12:34:44;;;;;;;;;;;;;;;;;;5016816;28;19956;-87
2024/01/23 12:37:12;;;;;;;;;;;;;;;;;;5017865;28;20343;-89
2024/01/23 12:39:39;;;;;;;;;;;;;;;;;;5020232;28;20020;-86
2024/01/23 12:42:04;;;;;;;;;;;;;;;;;;5038982;28;20033;-88
2024/01/23 12:44:32;;;;;;;;;;;;;;;;;;5042196;28;20251;-89
2024/01/23 12:47:00;;;;;;;;;;;;;;;;;;5025581;28;19945;-86
2024/01/23 12:49:25;;;;;;;;;;;;;;;;;;5026011;28;20356;-87
2024/01/23 12:51:51;;;;;;;;;;;;;;;;;;5036256;28;19932;-85
2024/01/23 12:54:18;;;;;;;;;;;;;;;;;;5037335;28;20465;-86
2024/01/23 12:56:43;;;;;;;;;;;;;;;;;;5021641;28;20439;-86
2024/01/23 12:59:09;;;;;;;;;;;;;;;;;;5018045;28;19931;-88
2024/01/23 13:01:34;;;;;;;;;;;;;;;;;;5035821;28;19992;-84
2024/01/23 13:04:00;;;;;;;;;;;;;;;;;;5020079;28;19952;-85
2024/01/23 13:06:27;;;;;;;;;;;;;;;;;;5018399;28;19921;-88
2024/01/23 13:08:53;;;;;;;;;;;;;;;;;;5017578;28;19940;-87
2024/01/23 13:11:19;;;;;;;;;;;;;;;;;;5020198;28;19971;-86
2024/01/23 13:13:47;;;;;;;;;;;;;;;;;;5022841;28;19921;-84
2024/01/23 13:16:12;;;;;;;;;;;;;;;;;;5021623;28;20087;-85
2024/01/23 13:18:39;;;;;;;;;;;;;;;;;;5018297;28;20600;-86
2024/01/23 13:21:05;;;;;;;;;;;;;;;;;;5015067;28;20512;-86
2024/01/23 13:23:31;;;;;;;;;;;;;;;;;;5019168;28;19921;-86
2024/01/23 13:25:56;;;;;;;;;;;;;;;;;;5018212;28;19975;-87
2024/01/23 13:28:25;;;;;;;;;;;;;;;;;;5020310;28;20254;-87
2024/01/23 13:30:51;;;;;;;;;;;;;;;;;;5021179;28;19999;-86
2024/01/23 13:33:23;;;;;;;;;;;;;;;;;;5034871;28;19952;-86
2024/01/23 13:35:52;;;;;;;;;;;;;;;;;;5020303;28;20004;-86
2024/01/23 13:38:21;;;;;;;;;;;;;;;;;;5019581;28;19921;-86
2024/01/23 13:40:47;;;;;;;;;;;;;;;;;;5035709;28;19920;-86
2024/01/23 13:43:12;;;;;;;;;;;;;;;;;;5028488;28;19975;-85
2024/01/23 13:45:37;;;;;;;;;;;;;;;;;;5017865;28;19913;-86
2024/01/23 13:48:04;;;;;;;;;;;;;;;;;;5023226;28;19912;-87
2024/01/23 13:50:29;;;;;;;;;;;;;;;;;;5034639;28;19988;-88
2024/01/23 13:52:55;;;;;;;;;;;;;;;;;;5019368;28;20028;-86
2024/01/23 13:55:26;;;;;;;;;;;;;;;;;;5018655;28;19971;-86
2024/01/23 13:57:51;;;;;;;;;;;;;;;;;;5038754;28;19913;-84
2024/01/23 14:00:19;;;;;;;;;;;;;;;;;;5022068;28;20612;-85
2024/01/23 14:02:45;;;;;;;;;;;;;;;;;;5026329;28;20374;-83
2024/01/23 14:05:10;;;;;;;;;;;;;;;;;;5030289;28;20018;-84
2024/01/23 14:07:36;;;;;;;;;;;;;;;;;;5034245;28;19913;-82
2024/01/23 14:10:01;;;;;;;;;;;;;;;;;;5049628;28;19927;-84
2024/01/23 14:12:26;;;;;;;;;;;;;;;;;;5035437;28;19924;-85
2024/01/23 14:14:52;;;;;;;;;;;;;;;;;;5033678;28;19917;-83
2024/01/23 14:17:17;;;;;;;;;;;;;;;;;;5033812;28;19924;-84
2024/01/23 14:19:42;;;;;;;;;;;;;;;;;;5038867;28;19982;-83
2024/01/23 14:22:10;;;;;;;;;;;;;;;;;;5038210;28;20122;-85
2024/01/23 14:24:39;;;;;;;;;;;;;;;;;;5053327;28;19928;-84
2024/01/23 14:27:04;;;;;;;;;;;;;;;;;;5036362;28;19987;-85
2024/01/23 14:29:30;;;;;;;;;;;;;;;;;;5055934;28;19921;-84
2024/01/23 14:31:55;;;;;;;;;;;;;;;;;;5030512;28;19913;-82
2024/01/23 14:34:21;;;;;;;;;;;;;;;;;;5028414;28;20015;-86
2024/01/23 14:36:48;;;;;;;;;;;;;;;;;;5054711;28;19920;-83
2024/01/23 14:39:13;;;;;;;;;;;;;;;;;;5029099;28;19921;-85
2024/01/23 14:41:39;;;;;;;;;;;;;;;;;;5026068;28;19927;-86
2024/01/23 14:44:04;;;;;;;;;;;;;;;;;;5036545;28;19913;-84
2024/01/23 14:46:33;;;;;;;;;;;;;;;;;;5021028;28;19972;-85
2024/01/23 14:49:01;;;;;;;;;;;;;;;;;;5019581;28;19921;-84
2024/01/23 14:51:27;;;;;;;;;;;;;;;;;;5021642;28;19916;-84
2024/01/23 14:53:53;;;;;;;;;;;;;;;;;;5023698;28;20497;-85
2024/01/23 14:56:18;;;;;;;;;;;;;;;;;;5022138;28;19973;-85
2024/01/23 14:58:43;;;;;;;;;;;;;;;;;;5021754;28;19925;-85
2024/01/23 15:01:10;;;;;;;;;;;;;;;;;;5024163;28;20003;-84
2024/01/23 15:03:38;;;;;;;;;;;;;;;;;;5023204;28;19917;-85
2024/01/23 15:06:04;;;;;;;;;;;;;;;;;;5014519;28;20401;-86
2024/01/23 15:08:29;;;;;;;;;;;;;;;;;;5035394;28;20055;-85
2024/01/23 15:10:54;;;;;;;;;;;;;;;;;;5019101;28;21309;-88
2024/01/23 15:13:20;;;;;;;;;;;;;;;;;;5016338;28;19959;-84
2024/01/23 15:15:45;;;;;;;;;;;;;;;;;;5015994;28;19913;-85
2024/01/23 15:18:11;;;;;;;;;;;;;;;;;;5035396;28;20273;-85
2024/01/23 15:20:37;;;;;;;;;;;;;;;;;;5049106;28;20224;-86
2024/01/23 15:23:04;;;;;;;;;;;;;;;;;;5015480;28;19927;-85
2024/01/23 15:25:30;;;;;;;;;;;;;;;;;;5020238;28;20002;-85
2024/01/23 15:27:55;;;;;;;;;;;;;;;;;;5033642;28;19987;-86
2024/01/23 15:30:21;;;;;;;;;;;;;;;;;;5030161;28;19921;-86
2024/01/23 15:32:46;;;;;;;;;;;;;;;;;;5018574;28;20470;-85
2024/01/23 15:35:11;;;;;;;;;;;;;;;;;;5020232;28;19925;-87
2024/01/23 15:37:38;;;;;;;;;;;;;;;;;;5032516;28;20001;-85
2024/01/23 15:40:03;;;;;;;;;;;;;;;;;;5018436;28;19957;-86
2024/01/23 15:42:29;;;;;;;;;;;;;;;;;;5033057;28;19917;-87
2024/01/23 15:44:55;;;;;;;;;;;;;;;;;;5018349;28;19909;-84
2024/01/23 15:47:26;;;;;;;;;;;;;;;;;;5019832;28;19931;-87
2024/01/23 15:49:54;;;;;;;;;;;;;;;;;;5017687;28;19933;-86
2024/01/23 15:52:21;;;;;;;;;;;;;;;;;;5034949;28;19913;-85
2024/01/23 15:54:46;;;;;;;;;;;;;;;;;;5023600;28;20000;-83
2024/01/23 15:57:12;;;;;;;;;;;;;;;;;;5036013;28;19976;-88
2024/01/23 15:59:37;;;;;;;;;;;;;;;;;;5018095;28;19997;-87
2024/01/23 16:02:04;;;;;;;;;;;;;;;;;;5033027;28;19943;-89
2024/01/23 16:04:29;;;;;;;;;;;;;;;;;;5035042;28;19951;-85
2024/01/23 16:06:56;;;;;;;;;;;;;;;;;;5035325;28;19917;-86
2024/01/23 16:09:22;;;;;;;;;;;;;;;;;;5038628;28;20407;-85
2024/01/23 16:11:57;;;;;;;;;;;;;;;;;;5025387;28;19944;-85
2024/01/23 16:14:26;;;;;;;;;;;;;;;;;;5032923;28;20141;-85
2024/01/23 16:16:54;;;;;;;;;;;;;;;;;;5034455;28;19977;-85
2024/01/23 16:19:19;;;;;;;;;;;;;;;;;;5023960;28;19917;-84
2024/01/23 16:21:45;;;;;;;;;;;;;;;;;;5026045;28;19939;-85
2024/01/23 16:24:12;;;;;;;;;;;;;;;;;;5028632;28;19921;-84
2024/01/23 16:26:38;;;;;;;;;;;;;;;;;;5042504;28;19940;-85
2024/01/23 16:29:04;;;;;;;;;;;;;;;;;;5022594;28;19913;-86
2024/01/23 16:31:31;;;;;;;;;;;;;;;;;;5043825;28;19924;-85
2024/01/23 16:33:56;;;;;;;;;;;;;;;;;;5018927;28;20184;-85
2024/01/23 16:36:23;;;;;;;;;;;;;;;;;;5037052;28;19920;-84
2024/01/23 16:38:50;;;;;;;;;;;;;;;;;;5018902;28;19971;-84
2024/01/23 16:41:15;;;;;;;;;;;;;;;;;;5015167;28;19981;-87
2024/01/23 16:43:40;;;;;;;;;;;;;;;;;;5021037;28;19917;-85
2024/01/23 16:46:08;;;;;;;;;;;;;;;;;;5019596;28;19932;-86
2024/01/23 16:48:34;;;;;;;;;;;;;;;;;;5020419;28;19939;-85
2024/01/23 16:51:03;;;;;;;;;;;;;;;;;;5034567;28;19921;-85
2024/01/23 16:53:28;;;;;;;;;;;;;;;;;;5013411;28;19931;-85
2024/01/23 16:55:53;;;;;;;;;;;;;;;;;;5027599;28;19916;-85
2024/01/23 16:58:19;;;;;;;;;;;;;;;;;;5013744;28;20002;-87
2024/01/23 17:00:44;;;;;;;;;;;;;;;;;;5027150;28;19921;-85
2024/01/23 17:03:10;;;;;;;;;;;;;;;;;;5022662;28;19924;-88
2024/01/23 17:05:35;;;;;;;;;;;;;;;;;;5022296;28;19921;-84
2024/01/23 17:08:04;;;;;;;;;;;;;;;;;;5012358;28;19951;-84